sensor_id;sensor_type;location;lat;lon;timestamp;temperature;humidity
20384;DHT22;46458;50.966;7.002;2023-05-07T00:01:31;15.80;99.90
20384;DHT22;46458;50.966;7.002;2023-05-07T00:04:00;15.70;99.90
20384;DHT22;46458;50.966;7.002;2023-05-07T00:06:29;15.70;99.90
20384;DHT22;46458;50.966;7.002;2023-05-07T00:09:00;15.70;99.90
20384;DHT22;46458;50.966;7.002;2023-05-07T00:11:30;15.70;99.90
20384;DHT22;46458;50.966;7.002;2023-05-07T00:14:01;15.70;99.90
20384;DHT22;46458;50.966;7.002;2023-05-07T00:16:30;15.80;99.90
20384;DHT22;46458;50.966;7.002;2023-05-07T00:18:59;15.70;99.90
20384;DHT22;46458;50.966;7.002;2023-05-07T00:21:28;15.70;99.90
20384;DHT22;46458;50.966;7.002;2023-05-07T00:23:57;15.70;99.90
20384;DHT22;46458;50.966;7.002;2023-05-07T00:26:26;15.70;99.90
20384;DHT22;46458;50.966;7.002;2023-05-07T00:28:55;15.70;99.90
20384;DHT22;46458;50.966;7.002;2023-05-07T00:31:26;15.70;99.90
20384;DHT22;46458;50.966;7.002;2023-05-07T00:34:01;15.60;99.90
20384;DHT22;46458;50.966;7.002;2023-05-07T00:36:30;15.60;99.90
20384;DHT22;46458;50.966;7.002;2023-05-07T00:39:00;15.60;99.90
20384;DHT22;46458;50.966;7.002;2023-05-07T00:41:29;15.60;99.90
20384;DHT22;46458;50.966;7.002;2023-05-07T00:43:59;15.60;99.90
20384;DHT22;46458;50.966;7.002;2023-05-07T00:46:31;15.60;99.90
20384;DHT22;46458;50.966;7.002;2023-05-07T00:49:03;15.60;99.90
20384;DHT22;46458;50.966;7.002;2023-05-07T00:51:33;15.60;99.90
20384;DHT22;46458;50.966;7.002;2023-05-07T00:54:04;15.70;99.90
20384;DHT22;46458;50.966;7.002;2023-05-07T00:56:33;15.70;99.90
20384;DHT22;46458;50.966;7.002;2023-05-07T00:59:03;15.70;99.90
20384;DHT22;46458;50.966;7.002;2023-05-07T01:01:34;15.80;99.90
20384;DHT22;46458;50.966;7.002;2023-05-07T01:04:03;15.70;99.90
20384;DHT22;46458;50.966;7.002;2023-05-07T01:06:33;15.70;99.90
20384;DHT22;46458;50.966;7.002;2023-05-07T01:09:05;15.70;99.90
20384;DHT22;46458;50.966;7.002;2023-05-07T01:11:35;15.70;99.90
20384;DHT22;46458;50.966;7.002;2023-05-07T01:14:07;15.70;99.90
20384;DHT22;46458;50.966;7.002;2023-05-07T01:16:39;15.70;99.90
20384;DHT22;46458;50.966;7.002;2023-05-07T01:19:12;15.70;99.90
20384;DHT22;46458;50.966;7.002;2023-05-07T01:21:46;15.70;99.90
20384;DHT22;46458;50.966;7.002;2023-05-07T01:24:22;15.60;99.90
20384;DHT22;46458;50.966;7.002;2023-05-07T01:26:56;15.70;99.90
20384;DHT22;46458;50.966;7.002;2023-05-07T01:29:32;15.60;99.90
20384;DHT22;46458;50.966;7.002;2023-05-07T01:32:02;15.60;99.90
20384;DHT22;46458;50.966;7.002;2023-05-07T01:34:34;15.60;99.90
20384;DHT22;46458;50.966;7.002;2023-05-07T01:37:05;15.60;99.90
20384;DHT22;46458;50.966;7.002;2023-05-07T01:39:38;15.60;99.90
20384;DHT22;46458;50.966;7.002;2023-05-07T01:42:07;15.50;99.90
20384;DHT22;46458;50.966;7.002;2023-05-07T01:44:37;15.50;99.90
20384;DHT22;46458;50.966;7.002;2023-05-07T01:47:06;15.50;99.90
20384;DHT22;46458;50.966;7.002;2023-05-07T01:49:35;15.50;99.90
20384;DHT22;46458;50.966;7.002;2023-05-07T01:52:07;15.50;99.90
20384;DHT22;46458;50.966;7.002;2023-05-07T01:54:39;15.50;99.90
20384;DHT22;46458;50.966;7.002;2023-05-07T01:57:08;15.50;99.90
20384;DHT22;46458;50.966;7.002;2023-05-07T01:59:37;15.40;99.90
20384;DHT22;46458;50.966;7.002;2023-05-07T02:02:06;15.40;99.90
20384;DHT22;46458;50.966;7.002;2023-05-07T02:04:39;15.30;99.90
20384;DHT22;46458;50.966;7.002;2023-05-07T02:07:08;15.30;99.90
20384;DHT22;46458;50.966;7.002;2023-05-07T02:09:39;15.30;99.90
20384;DHT22;46458;50.966;7.002;2023-05-07T02:12:08;15.30;99.90
20384;DHT22;46458;50.966;7.002;2023-05-07T02:14:37;15.30;99.90
20384;DHT22;46458;50.966;7.002;2023-05-07T02:17:06;15.30;99.90
20384;DHT22;46458;50.966;7.002;2023-05-07T02:19:35;15.40;99.90
20384;DHT22;46458;50.966;7.002;2023-05-07T02:22:06;15.40;99.90
20384;DHT22;46458;50.966;7.002;2023-05-07T02:24:35;15.40;99.90
20384;DHT22;46458;50.966;7.002;2023-05-07T02:27:13;15.40;99.90
20384;DHT22;46458;50.966;7.002;2023-05-07T02:29:43;15.30;99.90
20384;DHT22;46458;50.966;7.002;2023-05-07T02:32:12;15.20;99.90
20384;DHT22;46458;50.966;7.002;2023-05-07T02:34:41;15.20;99.90
20384;DHT22;46458;50.966;7.002;2023-05-07T02:37:10;15.20;99.90
20384;DHT22;46458;50.966;7.002;2023-05-07T02:39:39;15.10;99.90
20384;DHT22;46458;50.966;7.002;2023-05-07T02:42:10;15.10;99.90
20384;DHT22;46458;50.966;7.002;2023-05-07T02:44:42;15.10;99.90
20384;DHT22;46458;50.966;7.002;2023-05-07T02:47:11;15.00;99.90
20384;DHT22;46458;50.966;7.002;2023-05-07T02:49:41;15.00;99.90
20384;DHT22;46458;50.966;7.002;2023-05-07T02:52:10;15.00;99.90
20384;DHT22;46458;50.966;7.002;2023-05-07T02:54:40;15.00;99.90
20384;DHT22;46458;50.966;7.002;2023-05-07T02:57:12;15.00;99.90
20384;DHT22;46458;50.966;7.002;2023-05-07T02:59:41;15.00;99.90
20384;DHT22;46458;50.966;7.002;2023-05-07T03:02:12;15.00;99.90
20384;DHT22;46458;50.966;7.002;2023-05-07T03:04:41;15.00;99.90
20384;DHT22;46458;50.966;7.002;2023-05-07T03:07:10;15.00;99.90
20384;DHT22;46458;50.966;7.002;2023-05-07T03:09:40;15.00;99.90
20384;DHT22;46458;50.966;7.002;2023-05-07T03:12:12;15.00;99.90
20384;DHT22;46458;50.966;7.002;2023-05-07T03:14:41;15.10;99.90
20384;DHT22;46458;50.966;7.002;2023-05-07T03:17:12;15.10;99.90
20384;DHT22;46458;50.966;7.002;2023-05-07T03:19:44;15.00;99.90
20384;DHT22;46458;50.966;7.002;2023-05-07T03:22:14;15.00;99.90
20384;DHT22;46458;50.966;7.002;2023-05-07T03:24:43;15.00;99.90
20384;DHT22;46458;50.966;7.002;2023-05-07T03:27:16;15.10;99.90
20384;DHT22;46458;50.966;7.002;2023-05-07T03:29:51;15.10;99.90
20384;DHT22;46458;50.966;7.002;2023-05-07T03:32:20;15.10;99.90
20384;DHT22;46458;50.966;7.002;2023-05-07T03:34:53;15.10;99.90
20384;DHT22;46458;50.966;7.002;2023-05-07T03:37:22;15.00;99.90
20384;DHT22;46458;50.966;7.002;2023-05-07T03:39:51;15.00;99.90
20384;DHT22;46458;50.966;7.002;2023-05-07T03:42:25;14.90;99.90
20384;DHT22;46458;50.966;7.002;2023-05-07T03:44:54;14.90;99.90
20384;DHT22;46458;50.966;7.002;2023-05-07T03:47:25;14.90;99.90
20384;DHT22;46458;50.966;7.002;2023-05-07T03:49:55;14.90;99.90
20384;DHT22;46458;50.966;7.002;2023-05-07T03:52:25;14.90;99.90
20384;DHT22;46458;50.966;7.002;2023-05-07T03:54:57;14.90;99.90
20384;DHT22;46458;50.966;7.002;2023-05-07T03:57:29;14.80;99.90
20384;DHT22;46458;50.966;7.002;2023-05-07T03:59:59;14.80;99.90
20384;DHT22;46458;50.966;7.002;2023-05-07T04:02:33;14.80;99.90
20384;DHT22;46458;50.966;7.002;2023-05-07T04:05:04;14.80;99.90
20384;DHT22;46458;50.966;7.002;2023-05-07T04:07:36;14.80;99.90
20384;DHT22;46458;50.966;7.002;2023-05-07T04:10:06;14.80;99.90
20384;DHT22;46458;50.966;7.002;2023-05-07T04:12:40;14.80;99.90
20384;DHT22;46458;50.966;7.002;2023-05-07T04:15:18;14.80;99.90
20384;DHT22;46458;50.966;7.002;2023-05-07T04:17:47;14.80;99.90
20384;DHT22;46458;50.966;7.002;2023-05-07T04:20:19;14.80;99.90
20384;DHT22;46458;50.966;7.002;2023-05-07T04:22:54;14.80;99.90
20384;DHT22;46458;50.966;7.002;2023-05-07T04:25:23;14.80;99.90
20384;DHT22;46458;50.966;7.002;2023-05-07T04:27:59;14.80;99.90
20384;DHT22;46458;50.966;7.002;2023-05-07T04:30:32;14.90;99.90
20384;DHT22;46458;50.966;7.002;2023-05-07T04:33:03;14.90;99.90
20384;DHT22;46458;50.966;7.002;2023-05-07T04:35:33;14.80;99.90
20384;DHT22;46458;50.966;7.002;2023-05-07T04:38:04;14.90;99.90
20384;DHT22;46458;50.966;7.002;2023-05-07T04:40:32;14.90;99.90
20384;DHT22;46458;50.966;7.002;2023-05-07T04:43:04;15.00;99.90
20384;DHT22;46458;50.966;7.002;2023-05-07T04:45:40;15.00;99.90
20384;DHT22;46458;50.966;7.002;2023-05-07T04:48:11;15.00;99.90
20384;DHT22;46458;50.966;7.002;2023-05-07T04:50:40;15.10;99.90
20384;DHT22;46458;50.966;7.002;2023-05-07T04:53:10;15.10;99.90
20384;DHT22;46458;50.966;7.002;2023-05-07T04:55:39;15.10;99.90
20384;DHT22;46458;50.966;7.002;2023-05-07T04:58:11;15.10;99.90
20384;DHT22;46458;50.966;7.002;2023-05-07T05:00:41;15.10;99.90
20384;DHT22;46458;50.966;7.002;2023-05-07T05:03:11;15.10;99.90
20384;DHT22;46458;50.966;7.002;2023-05-07T05:05:39;15.20;99.90
20384;DHT22;46458;50.966;7.002;2023-05-07T05:08:09;15.20;99.90
20384;DHT22;46458;50.966;7.002;2023-05-07T05:10:44;15.20;99.90
20384;DHT22;46458;50.966;7.002;2023-05-07T05:13:17;15.20;99.90
20384;DHT22;46458;50.966;7.002;2023-05-07T05:15:47;15.20;99.90
20384;DHT22;46458;50.966;7.002;2023-05-07T05:18:16;15.20;99.90
20384;DHT22;46458;50.966;7.002;2023-05-07T05:20:46;15.10;99.90
20384;DHT22;46458;50.966;7.002;2023-05-07T05:23:15;15.20;99.90
20384;DHT22;46458;50.966;7.002;2023-05-07T05:25:56;15.20;99.90
20384;DHT22;46458;50.966;7.002;2023-05-07T05:28:31;15.20;99.90
20384;DHT22;46458;50.966;7.002;2023-05-07T05:31:00;15.30;99.90
20384;DHT22;46458;50.966;7.002;2023-05-07T05:33:32;15.40;99.90
20384;DHT22;46458;50.966;7.002;2023-05-07T05:36:05;15.40;99.90
20384;DHT22;46458;50.966;7.002;2023-05-07T05:38:36;15.50;99.90
20384;DHT22;46458;50.966;7.002;2023-05-07T05:41:06;15.50;99.90
20384;DHT22;46458;50.966;7.002;2023-05-07T05:43:37;15.60;99.90
20384;DHT22;46458;50.966;7.002;2023-05-07T05:46:06;15.60;99.90
20384;DHT22;46458;50.966;7.002;2023-05-07T05:48:38;15.50;99.90
20384;DHT22;46458;50.966;7.002;2023-05-07T05:51:07;15.60;99.90
20384;DHT22;46458;50.966;7.002;2023-05-07T05:53:36;15.50;99.90
20384;DHT22;46458;50.966;7.002;2023-05-07T05:56:08;15.60;99.90
20384;DHT22;46458;50.966;7.002;2023-05-07T05:58:41;15.60;99.90
20384;DHT22;46458;50.966;7.002;2023-05-07T06:01:10;15.60;99.90
20384;DHT22;46458;50.966;7.002;2023-05-07T06:03:38;15.60;99.90
20384;DHT22;46458;50.966;7.002;2023-05-07T06:06:12;15.70;99.90
20384;DHT22;46458;50.966;7.002;2023-05-07T06:08:46;15.70;99.90
20384;DHT22;46458;50.966;7.002;2023-05-07T06:11:20;15.80;99.90
20384;DHT22;46458;50.966;7.002;2023-05-07T06:13:54;15.80;99.90
20384;DHT22;46458;50.966;7.002;2023-05-07T06:16:24;15.80;99.90
20384;DHT22;46458;50.966;7.002;2023-05-07T06:18:53;15.90;99.90
20384;DHT22;46458;50.966;7.002;2023-05-07T06:21:22;15.90;99.90
20384;DHT22;46458;50.966;7.002;2023-05-07T06:23:51;15.90;99.90
20384;DHT22;46458;50.966;7.002;2023-05-07T06:26:21;16.00;99.90
20384;DHT22;46458;50.966;7.002;2023-05-07T06:28:50;16.00;99.90
20384;DHT22;46458;50.966;7.002;2023-05-07T06:31:21;16.10;99.90
20384;DHT22;46458;50.966;7.002;2023-05-07T06:33:58;16.10;99.90
20384;DHT22;46458;50.966;7.002;2023-05-07T06:36:33;16.20;99.90
20384;DHT22;46458;50.966;7.002;2023-05-07T06:39:09;16.30;99.90
20384;DHT22;46458;50.966;7.002;2023-05-07T06:41:38;16.40;99.90
20384;DHT22;46458;50.966;7.002;2023-05-07T06:44:15;16.50;99.90
20384;DHT22;46458;50.966;7.002;2023-05-07T06:46:50;16.50;99.90
20384;DHT22;46458;50.966;7.002;2023-05-07T06:49:19;16.60;99.90
20384;DHT22;46458;50.966;7.002;2023-05-07T06:51:49;16.60;99.90
20384;DHT22;46458;50.966;7.002;2023-05-07T06:54:21;16.70;99.90
20384;DHT22;46458;50.966;7.002;2023-05-07T06:56:51;16.70;99.90
20384;DHT22;46458;50.966;7.002;2023-05-07T06:59:21;16.80;99.90
20384;DHT22;46458;50.966;7.002;2023-05-07T07:01:53;16.90;99.90
20384;DHT22;46458;50.966;7.002;2023-05-07T07:04:31;16.90;99.90
20384;DHT22;46458;50.966;7.002;2023-05-07T07:07:04;17.00;99.90
20384;DHT22;46458;50.966;7.002;2023-05-07T07:09:34;17.10;99.90
20384;DHT22;46458;50.966;7.002;2023-05-07T07:12:05;17.10;99.90
20384;DHT22;46458;50.966;7.002;2023-05-07T07:14:36;17.20;99.90
20384;DHT22;46458;50.966;7.002;2023-05-07T07:17:08;17.30;99.90
20384;DHT22;46458;50.966;7.002;2023-05-07T07:19:37;17.40;99.90
20384;DHT22;46458;50.966;7.002;2023-05-07T07:22:06;17.50;99.90
20384;DHT22;46458;50.966;7.002;2023-05-07T07:24:36;17.50;99.90
20384;DHT22;46458;50.966;7.002;2023-05-07T07:27:07;17.50;99.90
20384;DHT22;46458;50.966;7.002;2023-05-07T07:29:39;17.60;99.90
20384;DHT22;46458;50.966;7.002;2023-05-07T07:32:12;17.70;99.90
20384;DHT22;46458;50.966;7.002;2023-05-07T07:34:41;17.80;99.90
20384;DHT22;46458;50.966;7.002;2023-05-07T07:37:10;17.90;99.90
20384;DHT22;46458;50.966;7.002;2023-05-07T07:39:39;17.90;99.90
20384;DHT22;46458;50.966;7.002;2023-05-07T07:42:08;17.90;99.90
20384;DHT22;46458;50.966;7.002;2023-05-07T07:44:38;18.00;99.90
20384;DHT22;46458;50.966;7.002;2023-05-07T07:47:14;18.00;99.90
20384;DHT22;46458;50.966;7.002;2023-05-07T07:49:44;18.10;99.90
20384;DHT22;46458;50.966;7.002;2023-05-07T07:52:15;18.20;99.90
20384;DHT22;46458;50.966;7.002;2023-05-07T07:54:47;17.80;99.90
20384;DHT22;46458;50.966;7.002;2023-05-07T07:57:16;18.30;99.90
20384;DHT22;46458;50.966;7.002;2023-05-07T07:59:45;18.40;99.90
20384;DHT22;46458;50.966;7.002;2023-05-07T08:02:18;18.40;99.90
20384;DHT22;46458;50.966;7.002;2023-05-07T08:04:48;18.40;99.90
20384;DHT22;46458;50.966;7.002;2023-05-07T08:07:17;18.40;99.90
20384;DHT22;46458;50.966;7.002;2023-05-07T08:09:48;18.50;99.90
20384;DHT22;46458;50.966;7.002;2023-05-07T08:12:21;18.60;99.90
20384;DHT22;46458;50.966;7.002;2023-05-07T08:14:50;18.60;99.90
20384;DHT22;46458;50.966;7.002;2023-05-07T08:17:21;18.70;99.90
20384;DHT22;46458;50.966;7.002;2023-05-07T08:19:53;18.70;99.90
20384;DHT22;46458;50.966;7.002;2023-05-07T08:22:22;18.70;99.90
20384;DHT22;46458;50.966;7.002;2023-05-07T08:24:51;18.80;99.90
20384;DHT22;46458;50.966;7.002;2023-05-07T08:27:22;18.70;99.90
20384;DHT22;46458;50.966;7.002;2023-05-07T08:29:51;18.80;99.90
20384;DHT22;46458;50.966;7.002;2023-05-07T08:32:24;18.80;99.90
20384;DHT22;46458;50.966;7.002;2023-05-07T08:34:53;18.80;99.90
20384;DHT22;46458;50.966;7.002;2023-05-07T08:37:25;18.80;99.90
20384;DHT22;46458;50.966;7.002;2023-05-07T08:39:54;18.80;99.90
20384;DHT22;46458;50.966;7.002;2023-05-07T08:42:28;18.80;99.90
20384;DHT22;46458;50.966;7.002;2023-05-07T08:44:59;18.90;99.90
20384;DHT22;46458;50.966;7.002;2023-05-07T08:47:43;19.00;99.90
20384;DHT22;46458;50.966;7.002;2023-05-07T08:50:15;19.00;99.90
20384;DHT22;46458;50.966;7.002;2023-05-07T08:52:44;19.00;99.90
20384;DHT22;46458;50.966;7.002;2023-05-07T08:55:14;19.10;99.90
20384;DHT22;46458;50.966;7.002;2023-05-07T08:57:44;19.10;99.90
20384;DHT22;46458;50.966;7.002;2023-05-07T09:00:15;19.20;99.90
20384;DHT22;46458;50.966;7.002;2023-05-07T09:02:52;19.20;99.90
20384;DHT22;46458;50.966;7.002;2023-05-07T09:05:21;19.30;99.90
20384;DHT22;46458;50.966;7.002;2023-05-07T09:07:51;19.30;99.90
20384;DHT22;46458;50.966;7.002;2023-05-07T09:10:22;19.40;99.90
20384;DHT22;46458;50.966;7.002;2023-05-07T09:12:50;19.40;99.90
20384;DHT22;46458;50.966;7.002;2023-05-07T09:15:20;19.50;99.90
20384;DHT22;46458;50.966;7.002;2023-05-07T09:17:51;19.60;99.90
20384;DHT22;46458;50.966;7.002;2023-05-07T09:20:20;19.70;99.90
20384;DHT22;46458;50.966;7.002;2023-05-07T09:22:49;19.90;99.90
20384;DHT22;46458;50.966;7.002;2023-05-07T09:25:28;20.00;99.90
20384;DHT22;46458;50.966;7.002;2023-05-07T09:28:01;20.20;99.90
20384;DHT22;46458;50.966;7.002;2023-05-07T09:30:31;20.30;99.90
20384;DHT22;46458;50.966;7.002;2023-05-07T09:33:06;20.50;99.90
20384;DHT22;46458;50.966;7.002;2023-05-07T09:35:40;20.60;99.90
20384;DHT22;46458;50.966;7.002;2023-05-07T09:38:15;20.70;99.90
20384;DHT22;46458;50.966;7.002;2023-05-07T09:41:03;20.70;99.90
20384;DHT22;46458;50.966;7.002;2023-05-07T09:43:37;20.70;99.90
20384;DHT22;46458;50.966;7.002;2023-05-07T09:46:12;20.80;99.90
20384;DHT22;46458;50.966;7.002;2023-05-07T09:48:49;20.90;99.90
20384;DHT22;46458;50.966;7.002;2023-05-07T09:51:25;21.00;99.90
20384;DHT22;46458;50.966;7.002;2023-05-07T09:53:58;21.20;99.90
20384;DHT22;46458;50.966;7.002;2023-05-07T09:56:30;21.40;99.90
20384;DHT22;46458;50.966;7.002;2023-05-07T09:59:00;21.60;99.90
20384;DHT22;46458;50.966;7.002;2023-05-07T10:01:33;21.80;99.90
20384;DHT22;46458;50.966;7.002;2023-05-07T10:04:08;21.90;99.90
20384;DHT22;46458;50.966;7.002;2023-05-07T10:06:38;22.10;99.90
20384;DHT22;46458;50.966;7.002;2023-05-07T10:09:10;22.40;99.90
20384;DHT22;46458;50.966;7.002;2023-05-07T10:11:39;22.50;99.90
20384;DHT22;46458;50.966;7.002;2023-05-07T10:14:10;22.60;99.90
20384;DHT22;46458;50.966;7.002;2023-05-07T10:16:41;22.70;99.90
20384;DHT22;46458;50.966;7.002;2023-05-07T10:19:18;22.60;99.90
20384;DHT22;46458;50.966;7.002;2023-05-07T10:21:55;22.50;99.90
20384;DHT22;46458;50.966;7.002;2023-05-07T10:24:27;22.50;99.90
20384;DHT22;46458;50.966;7.002;2023-05-07T10:27:01;22.60;99.90
20384;DHT22;46458;50.966;7.002;2023-05-07T10:29:35;22.70;99.90
20384;DHT22;46458;50.966;7.002;2023-05-07T10:32:19;22.70;99.90
20384;DHT22;46458;50.966;7.002;2023-05-07T10:35:02;22.80;99.90
20384;DHT22;46458;50.966;7.002;2023-05-07T10:37:32;22.80;99.90
20384;DHT22;46458;50.966;7.002;2023-05-07T10:40:01;22.90;99.90
20384;DHT22;46458;50.966;7.002;2023-05-07T10:42:33;22.80;99.90
20384;DHT22;46458;50.966;7.002;2023-05-07T10:45:12;22.70;99.90
20384;DHT22;46458;50.966;7.002;2023-05-07T10:48:08;22.70;99.90
20384;DHT22;46458;50.966;7.002;2023-05-07T10:50:41;22.80;99.90
20384;DHT22;46458;50.966;7.002;2023-05-07T10:53:27;22.80;99.90
20384;DHT22;46458;50.966;7.002;2023-05-07T10:56:26;22.90;99.90
20384;DHT22;46458;50.966;7.002;2023-05-07T10:59:30;23.00;99.90
20384;DHT22;46458;50.966;7.002;2023-05-07T11:02:13;22.80;99.90
20384;DHT22;46458;50.966;7.002;2023-05-07T11:05:19;22.90;99.90
20384;DHT22;46458;50.966;7.002;2023-05-07T11:08:09;22.90;99.90
20384;DHT22;46458;50.966;7.002;2023-05-07T11:10:59;23.00;99.90
20384;DHT22;46458;50.966;7.002;2023-05-07T11:13:50;23.00;99.90
20384;DHT22;46458;50.966;7.002;2023-05-07T11:16:32;23.10;99.90
20384;DHT22;46458;50.966;7.002;2023-05-07T11:19:11;23.20;99.90
20384;DHT22;46458;50.966;7.002;2023-05-07T11:21:46;23.30;99.90
20384;DHT22;46458;50.966;7.002;2023-05-07T11:24:42;23.30;99.90
20384;DHT22;46458;50.966;7.002;2023-05-07T11:27:13;23.30;99.90
20384;DHT22;46458;50.966;7.002;2023-05-07T11:29:46;23.10;99.90
20384;DHT22;46458;50.966;7.002;2023-05-07T11:32:15;23.10;99.90
20384;DHT22;46458;50.966;7.002;2023-05-07T11:34:56;23.10;99.90
20384;DHT22;46458;50.966;7.002;2023-05-07T11:37:26;23.10;99.90
20384;DHT22;46458;50.966;7.002;2023-05-07T11:40:06;23.10;99.90
20384;DHT22;46458;50.966;7.002;2023-05-07T11:42:40;23.00;99.90
20384;DHT22;46458;50.966;7.002;2023-05-07T11:45:10;23.00;99.90
20384;DHT22;46458;50.966;7.002;2023-05-07T11:47:41;22.90;99.90
20384;DHT22;46458;50.966;7.002;2023-05-07T11:50:11;22.90;99.90
20384;DHT22;46458;50.966;7.002;2023-05-07T11:52:40;22.80;99.90
20384;DHT22;46458;50.966;7.002;2023-05-07T11:55:21;22.70;99.90
20384;DHT22;46458;50.966;7.002;2023-05-07T11:57:51;22.70;99.90
20384;DHT22;46458;50.966;7.002;2023-05-07T12:00:22;22.60;99.90
20384;DHT22;46458;50.966;7.002;2023-05-07T12:02:51;22.50;99.90
20384;DHT22;46458;50.966;7.002;2023-05-07T12:05:22;22.40;99.90
20384;DHT22;46458;50.966;7.002;2023-05-07T12:07:56;22.30;99.90
20384;DHT22;46458;50.966;7.002;2023-05-07T12:10:30;22.30;99.90
20384;DHT22;46458;50.966;7.002;2023-05-07T12:12:59;22.20;99.90
20384;DHT22;46458;50.966;7.002;2023-05-07T12:15:28;22.20;99.90
20384;DHT22;46458;50.966;7.002;2023-05-07T12:17:57;22.20;99.90
20384;DHT22;46458;50.966;7.002;2023-05-07T12:20:28;22.20;99.90
20384;DHT22;46458;50.966;7.002;2023-05-07T12:22:59;22.10;99.90
20384;DHT22;46458;50.966;7.002;2023-05-07T12:25:34;22.10;99.90
20384;DHT22;46458;50.966;7.002;2023-05-07T12:28:04;22.10;99.90
20384;DHT22;46458;50.966;7.002;2023-05-07T12:30:37;22.10;99.90
20384;DHT22;46458;50.966;7.002;2023-05-07T12:33:06;22.10;99.90
20384;DHT22;46458;50.966;7.002;2023-05-07T12:35:37;22.10;99.90
20384;DHT22;46458;50.966;7.002;2023-05-07T12:38:08;22.10;99.90
20384;DHT22;46458;50.966;7.002;2023-05-07T12:40:46;22.10;99.90
20384;DHT22;46458;50.966;7.002;2023-05-07T12:43:17;22.00;99.90
20384;DHT22;46458;50.966;7.002;2023-05-07T12:45:47;22.00;99.90
20384;DHT22;46458;50.966;7.002;2023-05-07T12:48:17;22.00;99.90
20384;DHT22;46458;50.966;7.002;2023-05-07T12:50:49;22.00;99.90
20384;DHT22;46458;50.966;7.002;2023-05-07T12:53:20;21.90;99.90
20384;DHT22;46458;50.966;7.002;2023-05-07T12:55:54;21.90;99.90
20384;DHT22;46458;50.966;7.002;2023-05-07T12:58:24;21.90;99.90
20384;DHT22;46458;50.966;7.002;2023-05-07T13:00:54;21.80;99.90
20384;DHT22;46458;50.966;7.002;2023-05-07T13:03:27;21.80;99.90
20384;DHT22;46458;50.966;7.002;2023-05-07T13:05:58;21.80;99.90
20384;DHT22;46458;50.966;7.002;2023-05-07T13:08:31;21.70;99.90
20384;DHT22;46458;50.966;7.002;2023-05-07T13:11:04;21.70;99.90
20384;DHT22;46458;50.966;7.002;2023-05-07T13:13:34;21.70;99.90
20384;DHT22;46458;50.966;7.002;2023-05-07T13:16:05;21.70;99.90
20384;DHT22;46458;50.966;7.002;2023-05-07T13:18:35;21.70;99.90
20384;DHT22;46458;50.966;7.002;2023-05-07T13:21:04;21.70;99.90
20384;DHT22;46458;50.966;7.002;2023-05-07T13:23:33;21.70;99.90
20384;DHT22;46458;50.966;7.002;2023-05-07T13:26:06;21.70;99.90
20384;DHT22;46458;50.966;7.002;2023-05-07T13:28:35;21.70;99.90
20384;DHT22;46458;50.966;7.002;2023-05-07T13:31:04;21.80;99.90
20384;DHT22;46458;50.966;7.002;2023-05-07T13:33:33;21.80;99.90
20384;DHT22;46458;50.966;7.002;2023-05-07T13:36:05;21.80;99.90
20384;DHT22;46458;50.966;7.002;2023-05-07T13:38:34;21.80;99.90
20384;DHT22;46458;50.966;7.002;2023-05-07T13:41:08;21.90;99.90
20384;DHT22;46458;50.966;7.002;2023-05-07T13:43:38;21.90;99.90
20384;DHT22;46458;50.966;7.002;2023-05-07T13:46:07;21.90;99.90
20384;DHT22;46458;50.966;7.002;2023-05-07T13:48:36;21.90;99.90
20384;DHT22;46458;50.966;7.002;2023-05-07T13:51:05;21.80;99.90
20384;DHT22;46458;50.966;7.002;2023-05-07T13:53:36;21.80;99.90
20384;DHT22;46458;50.966;7.002;2023-05-07T13:56:08;21.80;99.90
20384;DHT22;46458;50.966;7.002;2023-05-07T13:58:36;21.80;99.90
20384;DHT22;46458;50.966;7.002;2023-05-07T14:01:05;21.70;99.90
20384;DHT22;46458;50.966;7.002;2023-05-07T14:03:34;21.70;99.90
20384;DHT22;46458;50.966;7.002;2023-05-07T14:06:05;21.60;99.90
20384;DHT22;46458;50.966;7.002;2023-05-07T14:08:34;21.60;99.90
20384;DHT22;46458;50.966;7.002;2023-05-07T14:11:08;21.60;99.90
20384;DHT22;46458;50.966;7.002;2023-05-07T14:13:37;21.60;99.90
20384;DHT22;46458;50.966;7.002;2023-05-07T14:16:06;21.50;99.90
20384;DHT22;46458;50.966;7.002;2023-05-07T14:18:36;21.50;99.90
20384;DHT22;46458;50.966;7.002;2023-05-07T14:21:05;21.40;99.90
20384;DHT22;46458;50.966;7.002;2023-05-07T14:23:35;21.40;99.90
20384;DHT22;46458;50.966;7.002;2023-05-07T14:26:04;21.40;99.90
20384;DHT22;46458;50.966;7.002;2023-05-07T14:28:35;21.40;99.90
20384;DHT22;46458;50.966;7.002;2023-05-07T14:31:08;21.40;99.90
20384;DHT22;46458;50.966;7.002;2023-05-07T14:33:38;21.40;99.90
20384;DHT22;46458;50.966;7.002;2023-05-07T14:36:07;21.40;99.90
20384;DHT22;46458;50.966;7.002;2023-05-07T14:38:35;21.40;99.90
20384;DHT22;46458;50.966;7.002;2023-05-07T14:41:04;21.50;99.90
20384;DHT22;46458;50.966;7.002;2023-05-07T14:43:36;21.50;99.90
20384;DHT22;46458;50.966;7.002;2023-05-07T14:46:05;21.50;99.90
20384;DHT22;46458;50.966;7.002;2023-05-07T14:48:33;21.60;99.90
20384;DHT22;46458;50.966;7.002;2023-05-07T14:51:05;21.50;99.90
20384;DHT22;46458;50.966;7.002;2023-05-07T14:53:34;21.40;99.90
20384;DHT22;46458;50.966;7.002;2023-05-07T14:56:03;21.40;99.90
20384;DHT22;46458;50.966;7.002;2023-05-07T14:58:34;21.40;99.90
20384;DHT22;46458;50.966;7.002;2023-05-07T15:01:03;21.40;99.90
20384;DHT22;46458;50.966;7.002;2023-05-07T15:03:33;21.30;99.90
20384;DHT22;46458;50.966;7.002;2023-05-07T15:06:02;21.30;99.90
20384;DHT22;46458;50.966;7.002;2023-05-07T15:08:31;21.20;99.90
20384;DHT22;46458;50.966;7.002;2023-05-07T15:11:00;21.20;99.90
20384;DHT22;46458;50.966;7.002;2023-05-07T15:13:29;21.20;99.90
20384;DHT22;46458;50.966;7.002;2023-05-07T15:16:01;21.10;99.90
20384;DHT22;46458;50.966;7.002;2023-05-07T15:18:29;21.10;99.90
20384;DHT22;46458;50.966;7.002;2023-05-07T15:21:04;21.00;99.90
20384;DHT22;46458;50.966;7.002;2023-05-07T15:23:33;21.00;99.90
20384;DHT22;46458;50.966;7.002;2023-05-07T15:26:05;21.00;99.90
20384;DHT22;46458;50.966;7.002;2023-05-07T15:28:34;21.00;99.90
20384;DHT22;46458;50.966;7.002;2023-05-07T15:31:06;21.00;99.90
20384;DHT22;46458;50.966;7.002;2023-05-07T15:33:35;21.00;99.90
20384;DHT22;46458;50.966;7.002;2023-05-07T15:36:05;21.00;99.90
20384;DHT22;46458;50.966;7.002;2023-05-07T15:38:34;21.00;99.90
20384;DHT22;46458;50.966;7.002;2023-05-07T15:41:05;21.10;99.90
20384;DHT22;46458;50.966;7.002;2023-05-07T15:43:44;21.10;99.90
20384;DHT22;46458;50.966;7.002;2023-05-07T15:46:17;21.10;99.90
20384;DHT22;46458;50.966;7.002;2023-05-07T15:48:47;21.00;99.90
20384;DHT22;46458;50.966;7.002;2023-05-07T15:51:16;21.00;99.90
20384;DHT22;46458;50.966;7.002;2023-05-07T15:53:45;20.90;99.90
20384;DHT22;46458;50.966;7.002;2023-05-07T15:56:15;20.90;99.90
20384;DHT22;46458;50.966;7.002;2023-05-07T15:58:43;20.90;99.90